sensor_id;sensor_type;location;lat;lon;timestamp;P1;durP1;ratioP1;P2;durP2;ratioP2
5349;SDS011;2697;42.144;24.794;2022-10-16T00:00:33;12.10;;;6.47;;
5349;SDS011;2697;42.144;24.794;2022-10-16T00:03:00;17.00;;;6.00;;
5349;SDS011;2697;42.144;24.794;2022-10-16T00:05:25;10.37;;;6.30;;
5349;SDS011;2697;42.144;24.794;2022-10-16T00:07:51;7.23;;;5.97;;
5349;SDS011;2697;42.144;24.794;2022-10-16T00:10:16;13.67;;;6.90;;
5349;SDS011;2697;42.144;24.794;2022-10-16T00:12:41;16.13;;;6.17;;
5349;SDS011;2697;42.144;24.794;2022-10-16T00:15:07;9.43;;;5.30;;
5349;SDS011;2697;42.144;24.794;2022-10-16T00:17:33;16.37;;;5.60;;
5349;SDS011;2697;42.144;24.794;2022-10-16T00:19:58;11.90;;;5.67;;
5349;SDS011;2697;42.144;24.794;2022-10-16T00:22:23;14.97;;;6.60;;
5349;SDS011;2697;42.144;24.794;2022-10-16T00:24:49;13.00;;;5.10;;
5349;SDS011;2697;42.144;24.794;2022-10-16T00:27:15;9.53;;;5.80;;
5349;SDS011;2697;42.144;24.794;2022-10-16T00:29:41;11.50;;;5.40;;
5349;SDS011;2697;42.144;24.794;2022-10-16T00:32:08;14.63;;;6.23;;
5349;SDS011;2697;42.144;24.794;2022-10-16T00:34:34;12.67;;;7.30;;
5349;SDS011;2697;42.144;24.794;2022-10-16T00:36:59;12.90;;;6.77;;
5349;SDS011;2697;42.144;24.794;2022-10-16T00:39:25;10.50;;;6.53;;
5349;SDS011;2697;42.144;24.794;2022-10-16T00:41:50;13.70;;;7.80;;
5349;SDS011;2697;42.144;24.794;2022-10-16T00:47:12;13.47;;;7.17;;
5349;SDS011;2697;42.144;24.794;2022-10-16T00:50:05;13.47;;;8.07;;
5349;SDS011;2697;42.144;24.794;2022-10-16T00:52:33;15.93;;;8.73;;
5349;SDS011;2697;42.144;24.794;2022-10-16T00:54:59;13.63;;;6.90;;
5349;SDS011;2697;42.144;24.794;2022-10-16T00:57:26;14.33;;;9.60;;
5349;SDS011;2697;42.144;24.794;2022-10-16T00:59:52;27.07;;;10.83;;
5349;SDS011;2697;42.144;24.794;2022-10-16T01:02:18;35.50;;;10.90;;
5349;SDS011;2697;42.144;24.794;2022-10-16T01:04:47;38.97;;;10.30;;
5349;SDS011;2697;42.144;24.794;2022-10-16T01:12:23;37.77;;;11.40;;
5349;SDS011;2697;42.144;24.794;2022-10-16T01:18:20;17.00;;;6.63;;
5349;SDS011;2697;42.144;24.794;2022-10-16T01:20:54;21.20;;;9.30;;
5349;SDS011;2697;42.144;24.794;2022-10-16T01:23:45;13.57;;;7.37;;
5349;SDS011;2697;42.144;24.794;2022-10-16T01:28:51;22.90;;;9.03;;
5349;SDS011;2697;42.144;24.794;2022-10-16T01:31:18;11.60;;;6.87;;
5349;SDS011;2697;42.144;24.794;2022-10-16T01:33:48;25.77;;;8.70;;
5349;SDS011;2697;42.144;24.794;2022-10-16T01:36:24;15.17;;;6.80;;
5349;SDS011;2697;42.144;24.794;2022-10-16T01:38:54;15.07;;;8.33;;
5349;SDS011;2697;42.144;24.794;2022-10-16T01:41:32;16.03;;;8.20;;
5349;SDS011;2697;42.144;24.794;2022-10-16T01:44:06;13.43;;;7.77;;
5349;SDS011;2697;42.144;24.794;2022-10-16T01:46:36;11.00;;;8.17;;
5349;SDS011;2697;42.144;24.794;2022-10-16T01:49:04;22.97;;;7.60;;
5349;SDS011;2697;42.144;24.794;2022-10-16T01:51:33;20.73;;;7.50;;
5349;SDS011;2697;42.144;24.794;2022-10-16T01:54:01;14.63;;;7.80;;
5349;SDS011;2697;42.144;24.794;2022-10-16T01:56:28;14.40;;;8.63;;
5349;SDS011;2697;42.144;24.794;2022-10-16T01:58:58;14.57;;;8.17;;
5349;SDS011;2697;42.144;24.794;2022-10-16T02:01:28;13.40;;;7.60;;
5349;SDS011;2697;42.144;24.794;2022-10-16T02:03:56;14.40;;;6.57;;
5349;SDS011;2697;42.144;24.794;2022-10-16T02:06:24;15.97;;;8.80;;
5349;SDS011;2697;42.144;24.794;2022-10-16T02:08:50;11.53;;;7.20;;
5349;SDS011;2697;42.144;24.794;2022-10-16T02:11:16;14.37;;;6.87;;
5349;SDS011;2697;42.144;24.794;2022-10-16T02:13:43;13.70;;;8.40;;
5349;SDS011;2697;42.144;24.794;2022-10-16T02:16:12;12.40;;;8.07;;
5349;SDS011;2697;42.144;24.794;2022-10-16T02:18:39;19.83;;;8.23;;
5349;SDS011;2697;42.144;24.794;2022-10-16T02:27:15;14.97;;;7.20;;
5349;SDS011;2697;42.144;24.794;2022-10-16T02:29:52;11.17;;;7.83;;
5349;SDS011;2697;42.144;24.794;2022-10-16T02:32:24;15.70;;;8.50;;
5349;SDS011;2697;42.144;24.794;2022-10-16T02:34:53;15.83;;;8.30;;
5349;SDS011;2697;42.144;24.794;2022-10-16T02:37:19;16.10;;;8.47;;
5349;SDS011;2697;42.144;24.794;2022-10-16T02:39:45;12.93;;;7.60;;
5349;SDS011;2697;42.144;24.794;2022-10-16T02:42:13;11.60;;;7.80;;
5349;SDS011;2697;42.144;24.794;2022-10-16T02:44:39;36.93;;;8.00;;
5349;SDS011;2697;42.144;24.794;2022-10-16T02:47:05;16.00;;;9.77;;
5349;SDS011;2697;42.144;24.794;2022-10-16T02:49:31;18.93;;;10.30;;
5349;SDS011;2697;42.144;24.794;2022-10-16T02:51:56;11.80;;;8.10;;
5349;SDS011;2697;42.144;24.794;2022-10-16T02:54:21;18.80;;;8.97;;
5349;SDS011;2697;42.144;24.794;2022-10-16T02:56:47;9.43;;;7.60;;
5349;SDS011;2697;42.144;24.794;2022-10-16T02:59:12;11.97;;;7.40;;
5349;SDS011;2697;42.144;24.794;2022-10-16T03:01:38;15.23;;;7.97;;
5349;SDS011;2697;42.144;24.794;2022-10-16T03:04:03;25.80;;;8.83;;
5349;SDS011;2697;42.144;24.794;2022-10-16T03:06:28;10.80;;;8.40;;
5349;SDS011;2697;42.144;24.794;2022-10-16T03:08:54;14.07;;;8.00;;
5349;SDS011;2697;42.144;24.794;2022-10-16T03:11:19;15.97;;;8.40;;
5349;SDS011;2697;42.144;24.794;2022-10-16T03:13:45;11.00;;;8.63;;
5349;SDS011;2697;42.144;24.794;2022-10-16T03:16:10;19.10;;;9.27;;
5349;SDS011;2697;42.144;24.794;2022-10-16T03:18:35;14.20;;;8.33;;
5349;SDS011;2697;42.144;24.794;2022-10-16T03:21:01;12.13;;;8.00;;
5349;SDS011;2697;42.144;24.794;2022-10-16T03:23:27;14.27;;;8.10;;
5349;SDS011;2697;42.144;24.794;2022-10-16T03:25:53;16.83;;;8.10;;
5349;SDS011;2697;42.144;24.794;2022-10-16T03:28:19;17.77;;;6.90;;
5349;SDS011;2697;42.144;24.794;2022-10-16T03:30:44;20.33;;;7.50;;
5349;SDS011;2697;42.144;24.794;2022-10-16T03:33:09;11.43;;;8.37;;
5349;SDS011;2697;42.144;24.794;2022-10-16T03:35:35;18.40;;;7.00;;
5349;SDS011;2697;42.144;24.794;2022-10-16T03:38:00;15.73;;;7.87;;
5349;SDS011;2697;42.144;24.794;2022-10-16T03:40:26;12.40;;;8.23;;
5349;SDS011;2697;42.144;24.794;2022-10-16T03:42:51;21.03;;;8.57;;
5349;SDS011;2697;42.144;24.794;2022-10-16T03:45:16;11.17;;;8.27;;
5349;SDS011;2697;42.144;24.794;2022-10-16T03:47:42;17.00;;;7.83;;
5349;SDS011;2697;42.144;24.794;2022-10-16T03:50:07;18.97;;;9.23;;
5349;SDS011;2697;42.144;24.794;2022-10-16T03:52:33;20.53;;;8.60;;
5349;SDS011;2697;42.144;24.794;2022-10-16T03:54:59;12.53;;;7.40;;
5349;SDS011;2697;42.144;24.794;2022-10-16T03:57:24;10.10;;;7.23;;
5349;SDS011;2697;42.144;24.794;2022-10-16T03:59:50;12.10;;;8.73;;
5349;SDS011;2697;42.144;24.794;2022-10-16T04:02:15;15.40;;;8.30;;
5349;SDS011;2697;42.144;24.794;2022-10-16T04:04:41;10.90;;;6.87;;
5349;SDS011;2697;42.144;24.794;2022-10-16T04:07:06;15.40;;;8.20;;
5349;SDS011;2697;42.144;24.794;2022-10-16T04:09:32;17.90;;;8.67;;
5349;SDS011;2697;42.144;24.794;2022-10-16T04:11:58;13.93;;;7.63;;
5349;SDS011;2697;42.144;24.794;2022-10-16T04:14:23;10.13;;;8.03;;
5349;SDS011;2697;42.144;24.794;2022-10-16T04:16:48;13.43;;;7.67;;
5349;SDS011;2697;42.144;24.794;2022-10-16T04:19:14;12.40;;;7.70;;
5349;SDS011;2697;42.144;24.794;2022-10-16T04:21:39;17.10;;;9.30;;
5349;SDS011;2697;42.144;24.794;2022-10-16T04:24:05;18.27;;;8.33;;
5349;SDS011;2697;42.144;24.794;2022-10-16T04:26:30;18.30;;;8.00;;
5349;SDS011;2697;42.144;24.794;2022-10-16T04:28:55;34.93;;;8.00;;
5349;SDS011;2697;42.144;24.794;2022-10-16T04:31:21;11.47;;;7.13;;
5349;SDS011;2697;42.144;24.794;2022-10-16T04:33:46;18.27;;;9.20;;
5349;SDS011;2697;42.144;24.794;2022-10-16T04:36:12;20.87;;;8.80;;
5349;SDS011;2697;42.144;24.794;2022-10-16T04:38:38;11.87;;;7.60;;
5349;SDS011;2697;42.144;24.794;2022-10-16T04:41:04;11.80;;;8.60;;
5349;SDS011;2697;42.144;24.794;2022-10-16T04:43:30;22.53;;;8.90;;
5349;SDS011;2697;42.144;24.794;2022-10-16T04:45:55;19.60;;;7.80;;
5349;SDS011;2697;42.144;24.794;2022-10-16T04:48:21;22.80;;;8.77;;
5349;SDS011;2697;42.144;24.794;2022-10-16T04:50:46;12.37;;;8.60;;
5349;SDS011;2697;42.144;24.794;2022-10-16T04:53:12;19.73;;;8.50;;
5349;SDS011;2697;42.144;24.794;2022-10-16T04:55:37;16.67;;;9.43;;
5349;SDS011;2697;42.144;24.794;2022-10-16T04:58:03;14.00;;;7.83;;
5349;SDS011;2697;42.144;24.794;2022-10-16T05:00:29;13.63;;;9.13;;
5349;SDS011;2697;42.144;24.794;2022-10-16T05:02:54;30.33;;;10.80;;
5349;SDS011;2697;42.144;24.794;2022-10-16T05:05:19;15.00;;;8.97;;
5349;SDS011;2697;42.144;24.794;2022-10-16T05:07:45;23.90;;;11.07;;
5349;SDS011;2697;42.144;24.794;2022-10-16T05:10:11;26.70;;;9.87;;
5349;SDS011;2697;42.144;24.794;2022-10-16T05:12:37;34.37;;;12.07;;
5349;SDS011;2697;42.144;24.794;2022-10-16T05:15:02;19.17;;;11.03;;
5349;SDS011;2697;42.144;24.794;2022-10-16T05:17:29;22.87;;;9.53;;
5349;SDS011;2697;42.144;24.794;2022-10-16T05:19:55;20.17;;;12.87;;
5349;SDS011;2697;42.144;24.794;2022-10-16T05:22:21;20.67;;;12.50;;
5349;SDS011;2697;42.144;24.794;2022-10-16T05:24:46;29.87;;;13.87;;
5349;SDS011;2697;42.144;24.794;2022-10-16T05:27:12;41.80;;;12.07;;
5349;SDS011;2697;42.144;24.794;2022-10-16T05:29:44;16.93;;;10.10;;
5349;SDS011;2697;42.144;24.794;2022-10-16T05:32:13;21.53;;;11.10;;
5349;SDS011;2697;42.144;24.794;2022-10-16T05:34:40;25.60;;;11.43;;
5349;SDS011;2697;42.144;24.794;2022-10-16T05:37:05;17.97;;;10.87;;
5349;SDS011;2697;42.144;24.794;2022-10-16T05:39:31;15.17;;;9.63;;
5349;SDS011;2697;42.144;24.794;2022-10-16T05:41:56;16.53;;;11.13;;
5349;SDS011;2697;42.144;24.794;2022-10-16T05:44:22;23.70;;;11.60;;
5349;SDS011;2697;42.144;24.794;2022-10-16T05:46:47;23.17;;;12.13;;
5349;SDS011;2697;42.144;24.794;2022-10-16T05:49:12;29.40;;;13.90;;
5349;SDS011;2697;42.144;24.794;2022-10-16T05:51:38;20.10;;;12.73;;
5349;SDS011;2697;42.144;24.794;2022-10-16T05:54:03;39.50;;;12.90;;
5349;SDS011;2697;42.144;24.794;2022-10-16T05:56:29;25.13;;;12.50;;
5349;SDS011;2697;42.144;24.794;2022-10-16T05:58:54;38.13;;;12.33;;
5349;SDS011;2697;42.144;24.794;2022-10-16T06:01:20;16.33;;;11.47;;
5349;SDS011;2697;42.144;24.794;2022-10-16T06:03:48;21.40;;;11.43;;
5349;SDS011;2697;42.144;24.794;2022-10-16T06:06:16;13.90;;;9.53;;
5349;SDS011;2697;42.144;24.794;2022-10-16T06:08:43;26.47;;;11.00;;
5349;SDS011;2697;42.144;24.794;2022-10-16T06:11:14;22.30;;;11.50;;
5349;SDS011;2697;42.144;24.794;2022-10-16T06:13:41;19.83;;;10.57;;
5349;SDS011;2697;42.144;24.794;2022-10-16T06:16:08;28.50;;;12.10;;
5349;SDS011;2697;42.144;24.794;2022-10-16T06:18:34;28.00;;;12.37;;
5349;SDS011;2697;42.144;24.794;2022-10-16T06:21:06;29.37;;;10.87;;
5349;SDS011;2697;42.144;24.794;2022-10-16T06:23:33;19.77;;;10.30;;
5349;SDS011;2697;42.144;24.794;2022-10-16T06:26:06;17.30;;;10.00;;
5349;SDS011;2697;42.144;24.794;2022-10-16T06:28:33;23.40;;;9.63;;
5349;SDS011;2697;42.144;24.794;2022-10-16T06:31:00;16.10;;;6.90;;
5349;SDS011;2697;42.144;24.794;2022-10-16T06:33:26;13.70;;;7.67;;
5349;SDS011;2697;42.144;24.794;2022-10-16T06:35:51;9.93;;;7.07;;
5349;SDS011;2697;42.144;24.794;2022-10-16T06:38:17;10.27;;;6.80;;
5349;SDS011;2697;42.144;24.794;2022-10-16T06:40:42;13.50;;;8.30;;
5349;SDS011;2697;42.144;24.794;2022-10-16T06:43:07;17.63;;;7.20;;
5349;SDS011;2697;42.144;24.794;2022-10-16T06:45:33;12.20;;;6.40;;
5349;SDS011;2697;42.144;24.794;2022-10-16T06:47:58;14.97;;;6.67;;
5349;SDS011;2697;42.144;24.794;2022-10-16T06:50:23;12.17;;;6.93;;
5349;SDS011;2697;42.144;24.794;2022-10-16T06:52:49;13.00;;;6.80;;
5349;SDS011;2697;42.144;24.794;2022-10-16T06:55:14;10.70;;;7.17;;
5349;SDS011;2697;42.144;24.794;2022-10-16T06:57:41;14.00;;;7.20;;
5349;SDS011;2697;42.144;24.794;2022-10-16T07:00:07;20.57;;;7.27;;
5349;SDS011;2697;42.144;24.794;2022-10-16T07:02:33;17.53;;;7.60;;
5349;SDS011;2697;42.144;24.794;2022-10-16T07:04:58;19.27;;;6.67;;
5349;SDS011;2697;42.144;24.794;2022-10-16T07:07:23;13.77;;;6.07;;
5349;SDS011;2697;42.144;24.794;2022-10-16T07:09:51;12.80;;;6.60;;
5349;SDS011;2697;42.144;24.794;2022-10-16T07:12:17;13.37;;;7.43;;
5349;SDS011;2697;42.144;24.794;2022-10-16T07:14:42;10.33;;;6.60;;
5349;SDS011;2697;42.144;24.794;2022-10-16T07:17:08;13.07;;;6.80;;
5349;SDS011;2697;42.144;24.794;2022-10-16T07:19:33;12.93;;;7.47;;
5349;SDS011;2697;42.144;24.794;2022-10-16T07:21:59;11.63;;;7.87;;
5349;SDS011;2697;42.144;24.794;2022-10-16T07:24:24;16.30;;;7.63;;
5349;SDS011;2697;42.144;24.794;2022-10-16T07:26:50;12.10;;;5.73;;
5349;SDS011;2697;42.144;24.794;2022-10-16T07:29:20;19.90;;;7.83;;
5349;SDS011;2697;42.144;24.794;2022-10-16T07:31:46;10.57;;;6.73;;
5349;SDS011;2697;42.144;24.794;2022-10-16T07:34:13;16.83;;;7.80;;
5349;SDS011;2697;42.144;24.794;2022-10-16T07:36:40;12.53;;;8.13;;
5349;SDS011;2697;42.144;24.794;2022-10-16T07:39:06;17.67;;;7.90;;
5349;SDS011;2697;42.144;24.794;2022-10-16T07:41:31;14.43;;;7.87;;
5349;SDS011;2697;42.144;24.794;2022-10-16T07:43:58;17.10;;;7.00;;
5349;SDS011;2697;42.144;24.794;2022-10-16T07:46:25;9.87;;;6.27;;
5349;SDS011;2697;42.144;24.794;2022-10-16T07:48:51;22.20;;;7.03;;
5349;SDS011;2697;42.144;24.794;2022-10-16T07:51:18;12.10;;;7.63;;
5349;SDS011;2697;42.144;24.794;2022-10-16T07:53:45;15.57;;;6.63;;
5349;SDS011;2697;42.144;24.794;2022-10-16T07:56:12;11.43;;;6.80;;
5349;SDS011;2697;42.144;24.794;2022-10-16T07:58:37;16.23;;;7.33;;
5349;SDS011;2697;42.144;24.794;2022-10-16T08:01:04;8.10;;;6.67;;
5349;SDS011;2697;42.144;24.794;2022-10-16T08:03:31;8.77;;;6.27;;
5349;SDS011;2697;42.144;24.794;2022-10-16T08:05:57;12.30;;;6.80;;
5349;SDS011;2697;42.144;24.794;2022-10-16T08:08:23;22.13;;;6.97;;
5349;SDS011;2697;42.144;24.794;2022-10-16T08:10:48;10.10;;;5.67;;
5349;SDS011;2697;42.144;24.794;2022-10-16T08:13:14;10.03;;;5.90;;
5349;SDS011;2697;42.144;24.794;2022-10-16T08:15:40;13.77;;;7.00;;
5349;SDS011;2697;42.144;24.794;2022-10-16T08:18:07;16.90;;;7.33;;
5349;SDS011;2697;42.144;24.794;2022-10-16T08:20:32;15.03;;;6.70;;
5349;SDS011;2697;42.144;24.794;2022-10-16T08:22:59;11.87;;;6.43;;
5349;SDS011;2697;42.144;24.794;2022-10-16T08:25:25;14.40;;;5.87;;
5349;SDS011;2697;42.144;24.794;2022-10-16T08:27:51;10.10;;;6.60;;
5349;SDS011;2697;42.144;24.794;2022-10-16T08:30:17;15.33;;;6.43;;
5349;SDS011;2697;42.144;24.794;2022-10-16T08:32:44;8.97;;;5.00;;
5349;SDS011;2697;42.144;24.794;2022-10-16T08:35:10;13.27;;;6.10;;
5349;SDS011;2697;42.144;24.794;2022-10-16T08:37:36;12.27;;;6.40;;
5349;SDS011;2697;42.144;24.794;2022-10-16T08:40:03;5.70;;;5.10;;
5349;SDS011;2697;42.144;24.794;2022-10-16T08:51:19;18.17;;;5.67;;
5349;SDS011;2697;42.144;24.794;2022-10-16T08:53:55;11.37;;;5.50;;
5349;SDS011;2697;42.144;24.794;2022-10-16T08:56:22;8.20;;;4.60;;
5349;SDS011;2697;42.144;24.794;2022-10-16T08:58:48;8.20;;;5.07;;
5349;SDS011;2697;42.144;24.794;2022-10-16T09:01:15;13.80;;;5.77;;
5349;SDS011;2697;42.144;24.794;2022-10-16T09:04:03;13.40;;;6.07;;
5349;SDS011;2697;42.144;24.794;2022-10-16T09:06:47;6.23;;;4.80;;
5349;SDS011;2697;42.144;24.794;2022-10-16T09:16:41;7.67;;;4.50;;
5349;SDS011;2697;42.144;24.794;2022-10-16T09:19:16;13.10;;;5.80;;
5349;SDS011;2697;42.144;24.794;2022-10-16T09:22:10;9.60;;;4.73;;
5349;SDS011;2697;42.144;24.794;2022-10-16T09:24:40;5.90;;;3.57;;
5349;SDS011;2697;42.144;24.794;2022-10-16T09:27:12;11.00;;;4.37;;
5349;SDS011;2697;42.144;24.794;2022-10-16T09:29:39;5.33;;;4.23;;
5349;SDS011;2697;42.144;24.794;2022-10-16T09:32:19;13.40;;;3.87;;
5349;SDS011;2697;42.144;24.794;2022-10-16T09:34:52;16.13;;;4.50;;
5349;SDS011;2697;42.144;24.794;2022-10-16T09:37:21;11.93;;;4.60;;
5349;SDS011;2697;42.144;24.794;2022-10-16T09:39:50;13.63;;;3.87;;
5349;SDS011;2697;42.144;24.794;2022-10-16T09:42:21;5.23;;;3.60;;
5349;SDS011;2697;42.144;24.794;2022-10-16T09:44:51;5.40;;;3.60;;
5349;SDS011;2697;42.144;24.794;2022-10-16T09:47:19;4.97;;;3.40;;
5349;SDS011;2697;42.144;24.794;2022-10-16T09:52:22;7.13;;;3.13;;
5349;SDS011;2697;42.144;24.794;2022-10-16T09:54:48;4.57;;;3.47;;
5349;SDS011;2697;42.144;24.794;2022-10-16T09:57:52;3.80;;;2.80;;
5349;SDS011;2697;42.144;24.794;2022-10-16T10:00:19;6.93;;;3.80;;
5349;SDS011;2697;42.144;24.794;2022-10-16T10:02:48;6.63;;;3.63;;
5349;SDS011;2697;42.144;24.794;2022-10-16T10:05:27;8.43;;;3.83;;
5349;SDS011;2697;42.144;24.794;2022-10-16T10:07:55;7.00;;;3.50;;
5349;SDS011;2697;42.144;24.794;2022-10-16T10:10:23;10.37;;;3.90;;
5349;SDS011;2697;42.144;24.794;2022-10-16T10:12:51;16.53;;;4.63;;
5349;SDS011;2697;42.144;24.794;2022-10-16T10:15:17;4.30;;;3.80;;
5349;SDS011;2697;42.144;24.794;2022-10-16T10:22:47;5.43;;;2.93;;
5349;SDS011;2697;42.144;24.794;2022-10-16T10:35:31;5.67;;;4.10;;
5349;SDS011;2697;42.144;24.794;2022-10-16T10:38:24;6.43;;;3.87;;
5349;SDS011;2697;42.144;24.794;2022-10-16T10:41:51;4.90;;;3.50;;
5349;SDS011;2697;42.144;24.794;2022-10-16T10:46:57;7.07;;;3.90;;
5349;SDS011;2697;42.144;24.794;2022-10-16T10:55:33;8.00;;;3.50;;
5349;SDS011;2697;42.144;24.794;2022-10-16T10:58:18;8.90;;;4.23;;
5349;SDS011;2697;42.144;24.794;2022-10-16T11:01:21;8.50;;;3.07;;
5349;SDS011;2697;42.144;24.794;2022-10-16T11:03:51;5.20;;;3.70;;
5349;SDS011;2697;42.144;24.794;2022-10-16T11:06:29;15.60;;;3.60;;
5349;SDS011;2697;42.144;24.794;2022-10-16T11:09:18;6.53;;;3.80;;
5349;SDS011;2697;42.144;24.794;2022-10-16T11:17:30;4.67;;;3.50;;
5349;SDS011;2697;42.144;24.794;2022-10-16T11:20:11;7.40;;;3.17;;
5349;SDS011;2697;42.144;24.794;2022-10-16T11:25:28;8.70;;;4.50;;
5349;SDS011;2697;42.144;24.794;2022-10-16T11:30:55;8.10;;;3.00;;
5349;SDS011;2697;42.144;24.794;2022-10-16T11:36:44;6.03;;;3.13;;
5349;SDS011;2697;42.144;24.794;2022-10-16T11:39:24;4.90;;;2.93;;
5349;SDS011;2697;42.144;24.794;2022-10-16T11:47:35;4.80;;;2.70;;
5349;SDS011;2697;42.144;24.794;2022-10-16T11:50:26;3.77;;;2.87;;
5349;SDS011;2697;42.144;24.794;2022-10-16T11:58:19;4.17;;;3.50;;
5349;SDS011;2697;42.144;24.794;2022-10-16T12:01:18;6.60;;;3.10;;
5349;SDS011;2697;42.144;24.794;2022-10-16T12:07:11;7.63;;;3.40;;
5349;SDS011;2697;42.144;24.794;2022-10-16T12:09:42;5.40;;;3.23;;
5349;SDS011;2697;42.144;24.794;2022-10-16T12:12:24;10.20;;;3.23;;
5349;SDS011;2697;42.144;24.794;2022-10-16T12:15:27;8.43;;;5.13;;
5349;SDS011;2697;42.144;24.794;2022-10-16T12:17:55;6.07;;;3.97;;
5349;SDS011;2697;42.144;24.794;2022-10-16T12:20:25;6.10;;;4.30;;
5349;SDS011;2697;42.144;24.794;2022-10-16T12:23:01;10.20;;;4.00;;
5349;SDS011;2697;42.144;24.794;2022-10-16T12:25:38;4.70;;;3.50;;
5349;SDS011;2697;42.144;24.794;2022-10-16T12:30:39;6.73;;;3.53;;
5349;SDS011;2697;42.144;24.794;2022-10-16T12:33:17;6.10;;;3.63;;
5349;SDS011;2697;42.144;24.794;2022-10-16T12:35:45;4.33;;;3.50;;
5349;SDS011;2697;42.144;24.794;2022-10-16T12:38:14;5.23;;;3.60;;
5349;SDS011;2697;42.144;24.794;2022-10-16T12:40:45;9.60;;;4.20;;
5349;SDS011;2697;42.144;24.794;2022-10-16T12:45:45;14.07;;;4.43;;
5349;SDS011;2697;42.144;24.794;2022-10-16T12:48:18;28.43;;;4.07;;
5349;SDS011;2697;42.144;24.794;2022-10-16T12:50:46;9.73;;;4.50;;
5349;SDS011;2697;42.144;24.794;2022-10-16T12:53:19;4.67;;;3.40;;
5349;SDS011;2697;42.144;24.794;2022-10-16T12:55:59;3.57;;;2.87;;
5349;SDS011;2697;42.144;24.794;2022-10-16T13:01:56;5.40;;;3.90;;
5349;SDS011;2697;42.144;24.794;2022-10-16T13:07:17;6.47;;;3.70;;
5349;SDS011;2697;42.144;24.794;2022-10-16T13:15:47;16.73;;;3.93;;
5349;SDS011;2697;42.144;24.794;2022-10-16T13:18:42;9.93;;;4.30;;
5349;SDS011;2697;42.144;24.794;2022-10-16T13:21:32;6.93;;;4.03;;
5349;SDS011;2697;42.144;24.794;2022-10-16T13:29:35;8.17;;;3.30;;
5349;SDS011;2697;42.144;24.794;2022-10-16T13:32:01;8.30;;;4.50;;
5349;SDS011;2697;42.144;24.794;2022-10-16T13:34:41;5.40;;;3.57;;
5349;SDS011;2697;42.144;24.794;2022-10-16T13:37:16;10.30;;;3.87;;
5349;SDS011;2697;42.144;24.794;2022-10-16T13:39:45;4.33;;;3.63;;
5349;SDS011;2697;42.144;24.794;2022-10-16T13:42:16;5.37;;;3.63;;
5349;SDS011;2697;42.144;24.794;2022-10-16T13:44:53;4.37;;;3.97;;
5349;SDS011;2697;42.144;24.794;2022-10-16T13:50:06;5.07;;;4.00;;
5349;SDS011;2697;42.144;24.794;2022-10-16T13:52:36;8.90;;;3.67;;
5349;SDS011;2697;42.144;24.794;2022-10-16T13:55:03;11.57;;;4.13;;
5349;SDS011;2697;42.144;24.794;2022-10-16T13:58:04;5.77;;;3.90;;
5349;SDS011;2697;42.144;24.794;2022-10-16T14:00:33;7.80;;;3.80;;
5349;SDS011;2697;42.144;24.794;2022-10-16T14:03:01;5.80;;;4.73;;
5349;SDS011;2697;42.144;24.794;2022-10-16T14:05:29;5.03;;;2.87;;
5349;SDS011;2697;42.144;24.794;2022-10-16T14:07:55;25.87;;;4.80;;
5349;SDS011;2697;42.144;24.794;2022-10-16T14:10:23;7.53;;;4.20;;
5349;SDS011;2697;42.144;24.794;2022-10-16T14:13:13;15.63;;;4.60;;
5349;SDS011;2697;42.144;24.794;2022-10-16T14:15:45;8.73;;;3.97;;
5349;SDS011;2697;42.144;24.794;2022-10-16T14:18:20;8.20;;;3.53;;
5349;SDS011;2697;42.144;24.794;2022-10-16T14:20:48;8.97;;;3.90;;
5349;SDS011;2697;42.144;24.794;2022-10-16T14:23:19;5.67;;;3.40;;
5349;SDS011;2697;42.144;24.794;2022-10-16T14:25:45;5.77;;;3.87;;
5349;SDS011;2697;42.144;24.794;2022-10-16T14:28:21;6.90;;;4.20;;
5349;SDS011;2697;42.144;24.794;2022-10-16T14:36:05;9.37;;;3.47;;
5349;SDS011;2697;42.144;24.794;2022-10-16T14:38:36;6.67;;;4.40;;
5349;SDS011;2697;42.144;24.794;2022-10-16T14:41:04;6.13;;;3.80;;
5349;SDS011;2697;42.144;24.794;2022-10-16T14:43:34;8.83;;;4.23;;
5349;SDS011;2697;42.144;24.794;2022-10-16T14:46:12;11.33;;;4.17;;
5349;SDS011;2697;42.144;24.794;2022-10-16T14:48:43;9.87;;;4.20;;
5349;SDS011;2697;42.144;24.794;2022-10-16T14:51:18;8.67;;;4.40;;
5349;SDS011;2697;42.144;24.794;2022-10-16T14:53:45;5.50;;;4.27;;
5349;SDS011;2697;42.144;24.794;2022-10-16T14:56:15;7.47;;;4.40;;
5349;SDS011;2697;42.144;24.794;2022-10-16T14:58:43;4.87;;;4.40;;
5349;SDS011;2697;42.144;24.794;2022-10-16T15:01:09;6.80;;;3.70;;
5349;SDS011;2697;42.144;24.794;2022-10-16T15:03:36;13.30;;;4.67;;
5349;SDS011;2697;42.144;24.794;2022-10-16T15:06:03;10.33;;;4.27;;
5349;SDS011;2697;42.144;24.794;2022-10-16T15:08:28;9.53;;;4.50;;
5349;SDS011;2697;42.144;24.794;2022-10-16T15:10:53;6.57;;;4.23;;
5349;SDS011;2697;42.144;24.794;2022-10-16T15:13:19;20.17;;;4.50;;
5349;SDS011;2697;42.144;24.794;2022-10-16T15:15:45;7.30;;;3.20;;
5349;SDS011;2697;42.144;24.794;2022-10-16T15:18:11;9.00;;;4.00;;
5349;SDS011;2697;42.144;24.794;2022-10-16T15:20:39;7.70;;;3.90;;
5349;SDS011;2697;42.144;24.794;2022-10-16T15:23:06;6.03;;;4.03;;
5349;SDS011;2697;42.144;24.794;2022-10-16T15:25:51;9.63;;;4.73;;
5349;SDS011;2697;42.144;24.794;2022-10-16T15:28:19;19.03;;;5.33;;
5349;SDS011;2697;42.144;24.794;2022-10-16T15:30:45;11.53;;;4.73;;
5349;SDS011;2697;42.144;24.794;2022-10-16T15:33:15;6.20;;;4.10;;
5349;SDS011;2697;42.144;24.794;2022-10-16T15:35:46;9.30;;;4.47;;
5349;SDS011;2697;42.144;24.794;2022-10-16T15:38:13;8.53;;;4.67;;
5349;SDS011;2697;42.144;24.794;2022-10-16T15:40:39;8.47;;;4.60;;
5349;SDS011;2697;42.144;24.794;2022-10-16T15:43:06;13.83;;;4.27;;
5349;SDS011;2697;42.144;24.794;2022-10-16T15:45:31;9.80;;;4.83;;
5349;SDS011;2697;42.144;24.794;2022-10-16T15:47:57;7.53;;;5.00;;
5349;SDS011;2697;42.144;24.794;2022-10-16T15:50:22;11.63;;;4.37;;
5349;SDS011;2697;42.144;24.794;2022-10-16T15:52:48;6.70;;;5.70;;
5349;SDS011;2697;42.144;24.794;2022-10-16T15:55:14;11.87;;;4.50;;
5349;SDS011;2697;42.144;24.794;2022-10-16T15:57:40;18.13;;;5.63;;
5349;SDS011;2697;42.144;24.794;2022-10-16T16:00:08;20.67;;;6.33;;
5349;SDS011;2697;42.144;24.794;2022-10-16T16:02:36;18.40;;;5.43;;
5349;SDS011;2697;42.144;24.794;2022-10-16T16:05:02;10.57;;;6.30;;
5349;SDS011;2697;42.144;24.794;2022-10-16T16:07:29;11.20;;;5.50;;
5349;SDS011;2697;42.144;24.794;2022-10-16T16:09:57;9.20;;;5.23;;
5349;SDS011;2697;42.144;24.794;2022-10-16T16:12:23;12.77;;;4.60;;
5349;SDS011;2697;42.144;24.794;2022-10-16T16:14:48;13.97;;;4.77;;
5349;SDS011;2697;42.144;24.794;2022-10-16T16:17:14;24.70;;;4.83;;
5349;SDS011;2697;42.144;24.794;2022-10-16T16:19:39;13.03;;;5.67;;
5349;SDS011;2697;42.144;24.794;2022-10-16T16:22:05;9.20;;;3.90;;
5349;SDS011;2697;42.144;24.794;2022-10-16T16:24:30;10.17;;;5.17;;
5349;SDS011;2697;42.144;24.794;2022-10-16T16:26:56;10.87;;;4.97;;
5349;SDS011;2697;42.144;24.794;2022-10-16T16:29:21;8.63;;;4.20;;
5349;SDS011;2697;42.144;24.794;2022-10-16T16:31:47;13.77;;;6.33;;
5349;SDS011;2697;42.144;24.794;2022-10-16T16:34:12;29.80;;;6.47;;
5349;SDS011;2697;42.144;24.794;2022-10-16T16:36:38;8.50;;;5.07;;
5349;SDS011;2697;42.144;24.794;2022-10-16T16:39:05;17.03;;;5.43;;
5349;SDS011;2697;42.144;24.794;2022-10-16T16:41:31;13.93;;;5.77;;
5349;SDS011;2697;42.144;24.794;2022-10-16T16:44:01;10.03;;;5.57;;
5349;SDS011;2697;42.144;24.794;2022-10-16T16:46:32;9.73;;;5.30;;
5349;SDS011;2697;42.144;24.794;2022-10-16T16:48:58;8.63;;;5.63;;
5349;SDS011;2697;42.144;24.794;2022-10-16T16:51:24;13.10;;;5.63;;
5349;SDS011;2697;42.144;24.794;2022-10-16T16:53:50;11.13;;;5.83;;
5349;SDS011;2697;42.144;24.794;2022-10-16T16:56:17;15.43;;;5.67;;
5349;SDS011;2697;42.144;24.794;2022-10-16T16:58:50;16.50;;;6.53;;
5349;SDS011;2697;42.144;24.794;2022-10-16T17:01:17;20.80;;;6.13;;
5349;SDS011;2697;42.144;24.794;2022-10-16T17:03:43;10.80;;;6.37;;